createdAt,value
2016-12-01T00:00:12.262Z,3.33
2016-12-01T00:01:26.393Z,3.29
2016-12-01T00:02:40.870Z,3.3
2016-12-01T00:03:55.104Z,3.37
2016-12-01T00:05:09.231Z,3.24
2016-12-01T00:06:23.092Z,3.3
2016-12-01T00:07:37.814Z,3.29
2016-12-01T00:08:52.464Z,3.27
2016-12-01T00:10:06.747Z,3.26
2016-12-01T00:11:21.162Z,3.31
2016-12-01T00:12:35.059Z,3.36
2016-12-01T00:13:51.747Z,3.36
2016-12-01T00:15:06.310Z,3.4
2016-12-01T00:16:21.382Z,3.3
2016-12-01T00:17:37.136Z,3.19
2016-12-01T00:18:51.304Z,3.31
2016-12-01T00:20:05.544Z,3.3
2016-12-01T00:21:20.163Z,3.21
2016-12-01T00:22:34.684Z,3.3
2016-12-01T00:24:04.355Z,3.29
2016-12-01T00:25:18.472Z,3.29
2016-12-01T00:26:32.689Z,3.45
2016-12-01T00:27:47.098Z,3.36
2016-12-01T00:29:02.381Z,3.36
2016-12-01T00:30:17.163Z,3.34
2016-12-01T00:31:30.946Z,3.24
2016-12-01T00:32:45.211Z,3.27
2016-12-01T00:33:59.755Z,3.08
2016-12-01T00:35:14.630Z,3.22
2016-12-01T00:36:30.318Z,3.27
2016-12-01T00:37:44.063Z,3.21
2016-12-01T00:38:58.181Z,3.18
2016-12-01T00:40:12.999Z,3.22
2016-12-01T00:41:28.076Z,3.21
2016-12-01T00:42:43.424Z,3.31
2016-12-01T00:43:57.667Z,3.16
2016-12-01T00:45:11.803Z,3.18
2016-12-01T00:46:26.305Z,3.11
2016-12-01T00:47:41.213Z,3.01
2016-12-01T00:48:55.117Z,3.16
2016-12-01T00:50:09.684Z,3.13
2016-12-01T00:51:24.417Z,3.21
2016-12-01T00:52:38.385Z,3.27
2016-12-01T00:53:54.260Z,3.29
2016-12-01T00:55:07.974Z,3.33
2016-12-01T00:56:22.201Z,3.26
2016-12-01T00:57:36.183Z,3.31
2016-12-01T00:58:50.057Z,3.24
2016-12-01T01:00:04.534Z,3.21
2016-12-01T01:01:18.489Z,3.21
2016-12-01T01:02:32.718Z,3.26
2016-12-01T01:03:48.035Z,3.21
2016-12-01T01:05:01.895Z,3.21
2016-12-01T01:06:15.818Z,3.3
2016-12-01T01:07:30.135Z,3.19
2016-12-01T01:08:44.361Z,3.31
2016-12-01T01:09:59.034Z,3.29
2016-12-01T01:11:13.392Z,3.24
2016-12-01T01:12:27.987Z,3.29
2016-12-01T01:13:42.178Z,3.4
2016-12-01T01:14:57.016Z,3.36
2016-12-01T01:16:11.626Z,3.41
2016-12-01T01:17:25.684Z,3.21
2016-12-01T01:18:40.858Z,3.29
2016-12-01T01:19:54.694Z,3.37
2016-12-01T01:21:09.308Z,3.3
2016-12-01T01:22:23.545Z,3.27
2016-12-01T01:23:38.155Z,3.24
2016-12-01T01:24:52.773Z,3.33
2016-12-01T01:26:06.783Z,3.36
2016-12-01T01:27:20.932Z,3.31
2016-12-01T01:28:34.885Z,3.3
2016-12-01T01:29:49.108Z,3.31
2016-12-01T01:31:05.517Z,3.33
2016-12-01T01:32:19.960Z,3.31
2016-12-01T01:33:34.458Z,3.34
2016-12-01T01:34:48.477Z,3.26
2016-12-01T01:36:02.619Z,3.3
2016-12-01T01:37:17.091Z,3.33
2016-12-01T01:38:31.551Z,3.33
2016-12-01T01:39:45.520Z,3.26
2016-12-01T01:40:59.581Z,3.29
2016-12-01T01:42:13.893Z,3.24
2016-12-01T01:43:28.373Z,3.3
2016-12-01T01:44:43.536Z,3.31
2016-12-01T01:45:57.801Z,3.33
2016-12-01T01:47:11.576Z,3.36
2016-12-01T01:48:25.335Z,3.41
2016-12-01T01:49:40.359Z,3.36
2016-12-01T01:50:54.935Z,3.29
2016-12-01T01:52:23.708Z,3.26
2016-12-01T01:53:38.095Z,3.26
2016-12-01T01:54:52.469Z,3.21
2016-12-01T01:56:06.950Z,3.37
2016-12-01T01:57:50.802Z,3.43
2016-12-01T01:59:05.019Z,3.4
2016-12-01T02:00:19.160Z,3.41
2016-12-01T02:01:33.734Z,3.27
2016-12-01T02:02:47.881Z,3.26
2016-12-01T02:04:02.100Z,3.19
2016-12-01T02:05:15.750Z,3.22
2016-12-01T02:06:30.327Z,3.27
2016-12-01T02:07:59.716Z,3.29
2016-12-01T02:09:13.706Z,3.41
2016-12-01T02:10:27.677Z,3.34
2016-12-01T02:11:41.915Z,3.36
2016-12-01T02:12:56.087Z,3.33
2016-12-01T02:14:10.313Z,3.3
2016-12-01T02:15:24.489Z,3.34
2016-12-01T02:16:38.465Z,3.37
2016-12-01T02:17:53.218Z,3.31
2016-12-01T02:19:08.303Z,3.22
2016-12-01T02:20:22.228Z,3.26
2016-12-01T02:21:36.517Z,3.29
2016-12-01T02:22:50.837Z,3.33
2016-12-01T02:24:04.944Z,3.34
2016-12-01T02:25:20.088Z,3.41
2016-12-01T02:26:34.008Z,3.36
2016-12-01T02:27:48.197Z,3.41
2016-12-01T02:29:02.828Z,3.29
2016-12-01T02:30:17.214Z,3.4
2016-12-01T02:31:31.943Z,3.41
2016-12-01T02:32:45.888Z,3.24
2016-12-01T02:34:00.514Z,3.27
2016-12-01T02:35:15.406Z,3.27
2016-12-01T02:36:30.240Z,3.29
2016-12-01T02:37:44.344Z,3.33
2016-12-01T02:38:58.186Z,3.37
2016-12-01T02:40:12.050Z,3.33
2016-12-01T02:41:26.455Z,3.34
2016-12-01T02:42:40.711Z,3.41
2016-12-01T02:43:54.521Z,3.37
2016-12-01T02:45:08.379Z,3.26
2016-12-01T02:49:34.305Z,3.41
2016-12-01T02:50:50.976Z,3.41
2016-12-01T02:52:04.961Z,3.41
2016-12-01T02:53:19.736Z,3.52
2016-12-01T02:54:33.580Z,3.41
2016-12-01T02:55:47.337Z,3.52
2016-12-01T02:57:01.491Z,3.56
2016-12-01T02:58:15.762Z,3.55
2016-12-01T02:59:30.519Z,3.58
2016-12-01T03:00:44.534Z,3.49
2016-12-01T03:01:58.374Z,3.52
2016-12-01T03:03:12.556Z,3.52
2016-12-01T03:04:41.178Z,3.4
2016-12-01T03:05:55.720Z,3.5
2016-12-01T03:07:09.555Z,3.36
2016-12-01T03:08:23.563Z,3.4
2016-12-01T03:09:37.239Z,3.43
2016-12-01T03:10:51.298Z,3.33
2016-12-01T03:12:05.446Z,3.22
2016-12-01T03:13:34.534Z,3.22
2016-12-01T03:14:48.346Z,3.16
2016-12-01T03:16:02.336Z,3.19
2016-12-01T03:17:16.218Z,3.16
2016-12-01T03:18:30.089Z,3.13
2016-12-01T03:19:44.396Z,3.16
2016-12-01T03:20:58.777Z,3.15
2016-12-01T03:22:12.812Z,3.13
2016-12-01T03:23:26.843Z,3.09
2016-12-01T03:24:40.690Z,3
2016-12-01T03:25:54.925Z,3.01
2016-12-01T03:27:09.139Z,3.05
2016-12-01T03:28:23.168Z,3.08
2016-12-01T03:29:37.478Z,3.15
2016-12-01T03:30:51.791Z,3.05
2016-12-01T03:32:06.078Z,3.16
2016-12-01T03:33:20.272Z,3
2016-12-01T03:34:34.049Z,3.05
2016-12-01T03:35:48.100Z,3.08
2016-12-01T03:37:02.507Z,2.95
2016-12-01T03:38:16.762Z,2.95
2016-12-01T03:39:31.168Z,2.97
2016-12-01T03:40:45.155Z,2.93
2016-12-01T03:41:59.215Z,2.97
2016-12-01T03:43:13.437Z,2.97
2016-12-01T03:44:27.660Z,3
2016-12-01T03:45:41.771Z,3
2016-12-01T03:46:55.440Z,3.08
2016-12-01T03:48:09.300Z,3
2016-12-01T03:49:23.766Z,2.98
2016-12-01T03:50:37.421Z,2.97
2016-12-01T03:51:51.425Z,3.05
2016-12-01T03:53:06.129Z,3
2016-12-01T03:54:19.937Z,3.05
2016-12-01T03:55:33.642Z,3.01
2016-12-01T03:56:47.660Z,2.98
2016-12-01T03:58:01.690Z,2.98
2016-12-01T03:59:15.810Z,2.97
2016-12-01T04:00:30.124Z,3
2016-12-01T04:01:44.067Z,2.9
2016-12-01T04:02:58.210Z,3.01
2016-12-01T04:04:12.308Z,3.16
2016-12-01T04:05:26.061Z,2.97
2016-12-01T04:06:40.242Z,3.01
2016-12-01T04:07:56.274Z,3.05
2016-12-01T04:09:10.237Z,3.01
2016-12-01T04:10:24.363Z,3
2016-12-01T04:11:38.672Z,3.05
2016-12-01T04:12:52.728Z,3.01
2016-12-01T04:14:07.021Z,2.98
2016-12-01T04:15:21.374Z,3.01
2016-12-01T04:16:35.779Z,3.01
2016-12-01T04:17:49.502Z,3.03
2016-12-01T04:19:03.418Z,3.01
2016-12-01T04:20:17.619Z,3
2016-12-01T04:21:31.459Z,2.98
2016-12-01T04:22:45.818Z,2.95
2016-12-01T04:23:59.773Z,3.01
2016-12-01T04:25:13.502Z,3.05
2016-12-01T04:26:27.860Z,3
2016-12-01T04:27:41.625Z,3.05
2016-12-01T04:28:56.302Z,3.12
2016-12-01T04:30:10.099Z,3.12
2016-12-01T04:31:23.994Z,3.01
2016-12-01T04:32:40.204Z,3.05
2016-12-01T04:33:54.461Z,3.01
2016-12-01T04:35:09.196Z,3.01
2016-12-01T04:36:23.748Z,3.01
2016-12-01T04:37:37.798Z,2.97
2016-12-01T04:38:51.941Z,2.94
2016-12-01T04:40:06.731Z,2.95
2016-12-01T04:41:21.275Z,3.01
2016-12-01T04:42:35.889Z,3.09
2016-12-01T04:43:50.341Z,3.13
2016-12-01T04:45:04.225Z,3.29
2016-12-01T04:46:18.655Z,3.3
2016-12-01T04:47:33.311Z,3.33
2016-12-01T04:48:47.485Z,3.24
2016-12-01T04:50:02.600Z,3.3
2016-12-01T04:51:17.118Z,3.26
2016-12-01T04:52:31.495Z,3.37
2016-12-01T04:53:46.026Z,3.41
2016-12-01T04:54:59.979Z,3.41
2016-12-01T04:56:13.988Z,3.4
2016-12-01T04:57:28.270Z,3.45
2016-12-01T04:58:42.406Z,3.43
2016-12-01T04:59:57.049Z,3.37
2016-12-01T05:01:10.798Z,3.41
2016-12-01T05:02:25.630Z,3.46
2016-12-01T05:03:39.559Z,3.48
2016-12-01T05:04:53.785Z,3.43
2016-12-01T05:06:08.711Z,3.43
2016-12-01T05:07:22.994Z,3.36
2016-12-01T05:08:37.304Z,3.41
2016-12-01T05:10:06.421Z,3.4
2016-12-01T05:11:20.855Z,3.43
2016-12-01T05:12:36.076Z,3.48
2016-12-01T05:13:50.252Z,3.37
2016-12-01T05:15:19.013Z,3.5
2016-12-01T05:16:33.024Z,3.64
2016-12-01T05:17:47.541Z,3.37
2016-12-01T05:19:01.958Z,3.61
2016-12-01T05:20:16.207Z,3.53
2016-12-01T05:21:30.066Z,3.5
2016-12-01T05:22:43.978Z,3.59
2016-12-01T05:23:58.611Z,3.64
2016-12-01T05:25:15.573Z,3.64
2016-12-01T05:26:29.879Z,3.74
2016-12-01T05:27:44.079Z,3.96
2016-12-01T05:28:57.859Z,3.99
2016-12-01T05:30:12.395Z,4.04
2016-12-01T05:31:41.487Z,4.06
2016-12-01T05:32:55.950Z,4.03
2016-12-01T05:34:09.952Z,3.92
2016-12-01T05:35:24.032Z,3.96
2016-12-01T05:36:37.733Z,3.91
2016-12-01T05:37:51.652Z,3.82
2016-12-01T05:39:05.708Z,3.86
2016-12-01T05:40:19.380Z,3.85
2016-12-01T05:41:33.937Z,3.88
2016-12-01T05:42:47.888Z,3.86
2016-12-01T05:44:02.311Z,3.95
2016-12-01T05:45:16.546Z,3.84
2016-12-01T05:46:31.717Z,3.95
2016-12-01T05:47:46.332Z,3.89
2016-12-01T05:49:01.006Z,3.94
2016-12-01T05:50:15.685Z,3.92
2016-12-01T05:51:29.787Z,4.03
2016-12-01T05:52:44.662Z,4.04
2016-12-01T05:54:00.112Z,3.99
2016-12-01T05:55:14.362Z,4.06
2016-12-01T05:56:29.435Z,3.96
2016-12-01T05:57:43.677Z,3.81
2016-12-01T05:58:57.421Z,3.73
2016-12-01T06:00:12.042Z,3.76
2016-12-01T06:01:26.374Z,3.78
2016-12-01T06:02:40.541Z,3.91
2016-12-01T06:03:55.484Z,3.89
2016-12-01T06:05:10.110Z,3.94
2016-12-01T06:06:24.108Z,3.85
2016-12-01T06:07:38.674Z,3.96
2016-12-01T06:08:53.122Z,3.95
2016-12-01T06:10:07.483Z,3.99
2016-12-01T06:11:21.907Z,4
2016-12-01T06:12:36.194Z,3.99
2016-12-01T06:13:50.232Z,4
2016-12-01T06:15:04.514Z,4.1
2016-12-01T06:16:19.532Z,4.06
2016-12-01T06:17:49.948Z,4.02
2016-12-01T06:19:04.131Z,4
2016-12-01T06:20:18.812Z,4.03
2016-12-01T06:21:32.638Z,3.94
2016-12-01T06:22:48.039Z,3.89
2016-12-01T06:24:02.808Z,3.76
2016-12-01T06:25:17.327Z,3.78
2016-12-01T06:26:31.638Z,3.68
2016-12-01T06:27:45.655Z,3.68
2016-12-01T06:29:00.099Z,3.58
2016-12-01T06:30:14.356Z,3.58
2016-12-01T06:31:28.786Z,3.52
2016-12-01T06:32:42.626Z,3.61
2016-12-01T06:33:56.703Z,3.58
2016-12-01T06:35:26.117Z,3.73
2016-12-01T06:36:40.966Z,3.67
2016-12-01T06:37:55.573Z,3.58
2016-12-01T06:39:09.672Z,3.56
2016-12-01T06:40:23.688Z,3.48
2016-12-01T06:41:37.986Z,3.59
2016-12-01T06:42:55.004Z,3.59
2016-12-01T06:44:08.931Z,3.58
2016-12-01T06:45:22.842Z,3.63
2016-12-01T06:46:37.047Z,3.73
2016-12-01T06:47:51.023Z,3.67
2016-12-01T06:49:05.433Z,3.7
2016-12-01T06:50:20.202Z,3.64
2016-12-01T06:51:34.292Z,3.7
2016-12-01T06:52:48.426Z,3.7
2016-12-01T06:54:02.488Z,3.71
2016-12-01T06:55:16.658Z,3.77
2016-12-01T06:56:30.855Z,3.77
2016-12-01T06:57:45.125Z,3.78
2016-12-01T06:58:59.221Z,3.73
2016-12-01T07:00:13.192Z,3.74
2016-12-01T07:01:27.333Z,3.92
2016-12-01T07:02:41.742Z,3.84
2016-12-01T07:03:56.042Z,3.92
2016-12-01T07:05:10.102Z,3.89
2016-12-01T07:06:23.921Z,3.89
2016-12-01T07:07:38.115Z,3.94
2016-12-01T07:09:07.221Z,3.85
2016-12-01T07:10:21.567Z,4.04
2016-12-01T07:11:35.636Z,4.07
2016-12-01T07:12:50.074Z,3.99
2016-12-01T07:14:05.133Z,4.02
2016-12-01T07:15:19.629Z,4.02
2016-12-01T07:16:33.932Z,3.96
2016-12-01T07:17:48.262Z,3.92
2016-12-01T07:19:04.462Z,3.74
2016-12-01T07:20:22.502Z,3.82
2016-12-01T07:21:36.807Z,3.82
2016-12-01T07:22:50.865Z,3.94
2016-12-01T07:24:05.122Z,3.88
2016-12-01T07:25:19.074Z,3.84
2016-12-01T07:26:32.971Z,3.94
2016-12-01T07:27:47.031Z,3.92
2016-12-01T07:29:01.699Z,3.95
2016-12-01T07:30:15.823Z,3.94
2016-12-01T07:31:30.158Z,3.92
2016-12-01T07:32:44.580Z,3.91
2016-12-01T07:33:59.076Z,3.94
2016-12-01T07:35:28.281Z,3.89
2016-12-01T07:36:43.220Z,3.94
2016-12-01T07:37:57.091Z,3.91
2016-12-01T07:39:11.005Z,4.03
2016-12-01T07:40:25.344Z,4.04
2016-12-01T07:41:39.051Z,4.04
2016-12-01T07:42:53.060Z,4.04
2016-12-01T07:44:07.315Z,3.95
2016-12-01T07:45:21.235Z,3.99
2016-12-01T07:46:35.682Z,4.03
2016-12-01T07:47:50.080Z,4.06
2016-12-01T07:49:03.988Z,4.12
2016-12-01T07:50:18.031Z,4.1
2016-12-01T07:51:31.748Z,3.99
2016-12-01T07:52:45.701Z,4.03
2016-12-01T07:54:14.624Z,4.07
2016-12-01T07:55:43.426Z,4.12
2016-12-01T07:56:58.093Z,3.99
2016-12-01T07:58:12.197Z,4.02
2016-12-01T07:59:26.679Z,4.03
2016-12-01T08:00:43.133Z,4.1
2016-12-01T08:01:57.293Z,4.04
2016-12-01T08:03:11.765Z,4.04
2016-12-01T08:04:40.444Z,4.1
2016-12-01T08:05:54.804Z,4.12
2016-12-01T08:07:08.694Z,4.13
2016-12-01T08:08:23.454Z,4.32
2016-12-01T08:09:37.520Z,4.28
2016-12-01T08:10:51.987Z,4.27
2016-12-01T08:12:06.652Z,4.31
2016-12-01T08:13:20.460Z,4.22
2016-12-01T08:14:49.413Z,4.28
2016-12-01T08:16:18.584Z,4.3
2016-12-01T08:17:32.781Z,4.31
2016-12-01T08:18:46.690Z,4.27
2016-12-01T08:20:00.990Z,4.31
2016-12-01T08:21:14.864Z,4.36
2016-12-01T08:22:28.915Z,4.31
2016-12-01T08:23:42.598Z,4.3
2016-12-01T08:24:57.152Z,4.4
2016-12-01T08:26:11.346Z,4.39
2016-12-01T08:27:25.274Z,4.38
2016-12-01T08:28:39.424Z,4.48
2016-12-01T08:29:53.306Z,4.27
2016-12-01T08:32:36.773Z,4.38
2016-12-01T08:33:51.797Z,4.42
2016-12-01T08:35:05.858Z,4.4
2016-12-01T08:36:19.903Z,4.45
2016-12-01T08:37:34.201Z,4.52
2016-12-01T08:38:48.551Z,4.53
2016-12-01T08:40:02.976Z,4.48
2016-12-01T08:41:17.259Z,4.48
2016-12-01T08:42:31.671Z,4.45
2016-12-01T08:43:45.988Z,4.49
2016-12-01T08:45:14.811Z,4.49
2016-12-01T08:46:28.781Z,4.45
2016-12-01T08:47:42.808Z,4.45
2016-12-01T08:48:57.320Z,4.57
2016-12-01T08:50:12.255Z,4.49
2016-12-01T08:51:26.382Z,4.43
2016-12-01T08:52:40.433Z,4.53
2016-12-01T08:53:54.323Z,4.42
2016-12-01T08:55:08.229Z,4.43
2016-12-01T08:56:22.165Z,4.49
2016-12-01T08:57:36.214Z,4.39
2016-12-01T08:58:50.951Z,4.34
2016-12-01T09:00:05.182Z,4.27
2016-12-01T09:01:19.749Z,4.22
2016-12-01T09:02:33.661Z,4.27
2016-12-01T09:03:48.036Z,4.32
2016-12-01T09:05:02.459Z,4.42
2016-12-01T09:06:16.360Z,4.49
2016-12-01T09:07:30.265Z,4.45
2016-12-01T09:08:59.599Z,4.5
2016-12-01T09:10:14.101Z,4.46
2016-12-01T09:11:28.567Z,4.48
2016-12-01T09:12:42.416Z,4.5
2016-12-01T09:13:56.475Z,4.52
2016-12-01T09:15:10.968Z,4.34
2016-12-01T09:16:24.927Z,4.49
2016-12-01T09:17:39.036Z,4.5
2016-12-01T09:18:55.124Z,4.53
2016-12-01T09:20:09.439Z,4.52
2016-12-01T09:21:23.560Z,4.5
2016-12-01T09:22:37.588Z,4.5
2016-12-01T09:23:51.913Z,4.5
2016-12-01T09:25:05.630Z,4.57
2016-12-01T09:26:19.527Z,4.5
2016-12-01T09:27:33.755Z,4.63
2016-12-01T09:28:47.627Z,4.63
2016-12-01T09:30:01.735Z,4.58
2016-12-01T09:31:16.315Z,4.64
2016-12-01T09:32:44.972Z,4.64
2016-12-01T09:33:59.140Z,4.49
2016-12-01T09:35:12.951Z,4.56
2016-12-01T09:36:27.729Z,4.57
2016-12-01T09:37:41.967Z,4.63
2016-12-01T09:40:25.021Z,4.66
2016-12-01T09:41:39.356Z,4.61
2016-12-01T09:42:53.275Z,4.57
2016-12-01T09:44:07.473Z,4.63
2016-12-01T09:45:21.394Z,4.58
2016-12-01T09:46:35.808Z,4.6
2016-12-01T09:47:49.769Z,4.61
2016-12-01T09:49:03.884Z,4.63
2016-12-01T09:50:18.445Z,4.5
2016-12-01T09:51:32.413Z,4.49
2016-12-01T09:52:47.137Z,4.6
2016-12-01T09:54:01.728Z,4.57
2016-12-01T09:55:16.180Z,4.61
2016-12-01T09:56:29.912Z,4.56
2016-12-01T09:57:43.972Z,4.57
2016-12-01T09:58:57.960Z,4.63
2016-12-01T10:00:12.708Z,4.56
2016-12-01T10:01:27.037Z,4.63
2016-12-01T10:02:41.301Z,4.6
2016-12-01T10:03:55.675Z,4.66
2016-12-01T10:05:10.399Z,4.49
2016-12-01T10:06:24.288Z,4.52
2016-12-01T10:07:38.396Z,4.53
2016-12-01T10:08:52.525Z,4.68
2016-12-01T10:10:06.366Z,4.76
2016-12-01T10:11:20.797Z,4.74
2016-12-01T10:12:34.721Z,4.78
2016-12-01T10:13:48.851Z,4.66
2016-12-01T10:15:02.704Z,4.76
2016-12-01T10:16:16.423Z,4.82
2016-12-01T10:17:30.774Z,4.83
2016-12-01T10:18:45.067Z,4.78
2016-12-01T10:19:59.156Z,4.78
2016-12-01T10:21:13.785Z,4.78
2016-12-01T10:22:28.388Z,4.78
2016-12-01T10:23:42.425Z,4.87
2016-12-01T10:24:56.140Z,4.94
2016-12-01T10:26:09.858Z,4.84
2016-12-01T10:27:24.396Z,4.92
2016-12-01T10:28:38.753Z,4.83
2016-12-01T10:29:53.223Z,4.9
2016-12-01T10:31:07.168Z,4.89
2016-12-01T10:32:22.061Z,4.9
2016-12-01T10:33:36.191Z,5.02
2016-12-01T10:34:50.897Z,4.95
2016-12-01T10:36:08.141Z,5.02
2016-12-01T10:37:22.474Z,5.05
2016-12-01T10:38:36.515Z,5.1
2016-12-01T10:39:50.474Z,5.07
2016-12-01T10:41:04.549Z,5.07
2016-12-01T10:42:19.437Z,5.15
2016-12-01T10:43:33.670Z,5.19
2016-12-01T10:44:48.221Z,5.25
2016-12-01T10:46:02.763Z,5.31
2016-12-01T10:47:17.112Z,5.36
2016-12-01T10:48:31.893Z,5.47
2016-12-01T10:49:46.334Z,5.38
2016-12-01T10:51:00.909Z,5.44
2016-12-01T10:52:15.369Z,5.54
2016-12-01T10:53:29.615Z,5.56
2016-12-01T10:54:43.690Z,5.59
2016-12-01T10:55:57.764Z,5.7
2016-12-01T10:57:11.915Z,5.65
2016-12-01T10:58:26.880Z,5.65
2016-12-01T10:59:41.090Z,5.61
2016-12-01T11:00:55.446Z,5.64
2016-12-01T11:03:37.753Z,5.4
2016-12-01T11:04:51.758Z,5.36
2016-12-01T11:06:05.546Z,5.4
2016-12-01T11:07:19.766Z,5.46
2016-12-01T11:08:34.076Z,5.41
2016-12-01T11:09:48.071Z,5.33
2016-12-01T11:11:02.167Z,5.28
2016-12-01T11:12:16.023Z,5.33
2016-12-01T11:13:30.221Z,5.38
2016-12-01T11:14:44.199Z,5.28
2016-12-01T11:15:58.348Z,5.2
2016-12-01T11:17:12.282Z,5.33
2016-12-01T11:18:26.723Z,5.28
2016-12-01T11:19:41.305Z,5.28
2016-12-01T11:20:56.132Z,5.2
2016-12-01T11:22:10.408Z,5.19
2016-12-01T11:23:25.648Z,5.23
2016-12-01T11:24:40.210Z,5.31
2016-12-01T11:25:57.202Z,5.23
2016-12-01T11:27:14.643Z,5.28
2016-12-01T11:28:29.850Z,5.28
2016-12-01T11:29:44.225Z,5.22
2016-12-01T11:31:00.638Z,5.22
2016-12-01T11:32:15.285Z,5.22
2016-12-01T11:33:29.708Z,5.2
2016-12-01T11:34:43.812Z,5.19
2016-12-01T11:35:57.907Z,5.2
2016-12-01T11:37:12.416Z,5.28
2016-12-01T11:38:27.813Z,5.33
2016-12-01T11:39:42.067Z,5.25
2016-12-01T11:40:56.277Z,5.36
2016-12-01T11:42:10.628Z,5.43
2016-12-01T11:43:24.640Z,5.44
2016-12-01T11:44:39.580Z,5.44
2016-12-01T11:45:54.628Z,5.47
2016-12-01T11:47:14.110Z,5.38
2016-12-01T11:48:51.578Z,5.31
2016-12-01T11:50:28.584Z,5.37
2016-12-01T11:51:55.274Z,5.29
2016-12-01T11:55:02.642Z,5.36
2016-12-01T11:56:29.565Z,5.34
2016-12-01T11:57:52.638Z,5.38
2016-12-01T11:59:16.113Z,5.52
2016-12-01T12:00:39.644Z,5.55
2016-12-01T12:02:17.667Z,5.55
2016-12-01T12:03:38.856Z,5.7
2016-12-01T12:04:59.731Z,5.65
2016-12-01T12:06:21.778Z,5.62
2016-12-01T12:07:55.708Z,5.67
2016-12-01T12:09:15.180Z,5.74
2016-12-01T12:10:31.065Z,5.72
2016-12-01T12:11:47.201Z,5.62
2016-12-01T12:13:04.260Z,5.62
2016-12-01T12:14:18.808Z,5.65
2016-12-01T12:15:32.726Z,5.7
2016-12-01T12:16:46.894Z,5.8
2016-12-01T12:18:02.221Z,5.69
2016-12-01T12:19:17.567Z,5.7
2016-12-01T12:20:32.028Z,5.65
2016-12-01T12:21:46.439Z,5.67
2016-12-01T12:23:00.674Z,5.54
2016-12-01T12:24:15.864Z,5.7
2016-12-01T12:25:30.346Z,5.77
2016-12-01T12:26:44.809Z,5.77
2016-12-01T12:27:58.989Z,5.73
2016-12-01T12:29:13.548Z,5.56
2016-12-01T12:30:28.442Z,5.69
2016-12-01T12:31:43.168Z,5.67
2016-12-01T12:32:57.564Z,5.52
2016-12-01T12:34:12.071Z,5.54
2016-12-01T12:35:26.603Z,5.51
2016-12-01T12:36:41.512Z,5.65
2016-12-01T12:37:56.578Z,5.62
2016-12-01T12:39:11.145Z,5.52
2016-12-01T12:40:26.212Z,5.65
2016-12-01T12:41:41.046Z,5.65
2016-12-01T12:42:55.430Z,5.69
2016-12-01T12:44:09.808Z,5.52
2016-12-01T12:45:23.838Z,5.62
2016-12-01T12:46:37.860Z,5.67
2016-12-01T12:48:06.919Z,5.62
2016-12-01T12:49:22.079Z,5.67
2016-12-01T12:50:36.391Z,5.67
2016-12-01T12:51:50.613Z,5.72
2016-12-01T12:53:05.181Z,5.65
2016-12-01T12:54:19.591Z,5.67
2016-12-01T12:55:34.264Z,5.67
2016-12-01T12:56:48.039Z,5.67
2016-12-01T12:58:01.935Z,5.58
2016-12-01T12:59:16.342Z,5.59
2016-12-01T13:00:30.375Z,5.65
2016-12-01T13:01:45.126Z,5.62
2016-12-01T13:02:58.910Z,5.59
2016-12-01T13:04:13.511Z,5.56
2016-12-01T13:05:27.752Z,5.67
2016-12-01T13:06:41.967Z,5.67
2016-12-01T13:07:56.718Z,5.65
2016-12-01T13:09:11.150Z,5.64
2016-12-01T13:10:24.943Z,5.55
2016-12-01T13:11:39.090Z,5.56
2016-12-01T13:12:52.979Z,5.62
2016-12-01T13:14:09.967Z,5.52
2016-12-01T13:15:24.295Z,5.43
2016-12-01T13:16:38.315Z,5.38
2016-12-01T13:18:07.561Z,5.52
2016-12-01T13:19:21.815Z,5.49
2016-12-01T13:20:35.548Z,5.54
2016-12-01T13:21:50.022Z,5.49
2016-12-01T13:23:03.832Z,5.64
2016-12-01T13:24:18.104Z,5.46
2016-12-01T13:25:31.879Z,5.62
2016-12-01T13:26:46.484Z,5.7
2016-12-01T13:28:01.009Z,5.62
2016-12-01T13:29:15.132Z,5.58
2016-12-01T13:30:29.123Z,5.69
2016-12-01T13:31:43.200Z,5.77
2016-12-01T13:32:57.258Z,5.72
2016-12-01T13:34:11.679Z,5.69
2016-12-01T13:35:26.552Z,5.64
2016-12-01T13:36:40.634Z,5.64
2016-12-01T13:37:54.870Z,5.69
2016-12-01T13:39:09.295Z,5.67
2016-12-01T13:40:23.379Z,5.65
2016-12-01T13:41:52.955Z,5.72
2016-12-01T13:43:07.248Z,5.62
2016-12-01T13:44:21.995Z,5.62
2016-12-01T13:45:35.901Z,5.64
2016-12-01T13:46:50.382Z,5.59
2016-12-01T13:48:04.956Z,5.64
2016-12-01T13:49:18.935Z,5.56
2016-12-01T13:50:33.651Z,5.67
2016-12-01T13:51:48.046Z,5.67
2016-12-01T13:53:02.376Z,5.69
2016-12-01T13:54:16.983Z,5.61
2016-12-01T13:55:30.859Z,5.64
2016-12-01T13:56:45.438Z,5.58
2016-12-01T13:57:59.606Z,5.51
2016-12-01T13:59:13.868Z,5.58
2016-12-01T14:00:27.984Z,5.69
2016-12-01T14:01:41.778Z,5.72
2016-12-01T14:02:55.910Z,5.7
2016-12-01T14:04:10.097Z,5.64
2016-12-01T14:05:24.054Z,5.65
2016-12-01T14:06:38.703Z,5.73
2016-12-01T14:07:52.710Z,5.7
2016-12-01T14:09:06.926Z,5.58
2016-12-01T14:10:21.080Z,5.72
2016-12-01T14:11:34.920Z,5.77
2016-12-01T14:12:49.450Z,5.84
2016-12-01T14:14:03.688Z,5.76
2016-12-01T14:15:17.893Z,5.73
2016-12-01T14:16:32.066Z,5.77
2016-12-01T14:17:46.112Z,5.76
2016-12-01T14:19:00.681Z,5.73
2016-12-01T14:20:14.798Z,5.77
2016-12-01T14:21:28.811Z,5.77
2016-12-01T14:22:43.249Z,5.8
2016-12-01T14:23:57.204Z,5.76
2016-12-01T14:25:11.410Z,5.7
2016-12-01T14:26:25.765Z,5.69
2016-12-01T14:27:39.823Z,5.61
2016-12-01T14:29:08.535Z,5.64
2016-12-01T14:30:22.445Z,5.67
2016-12-01T14:31:38.834Z,5.73
2016-12-01T14:32:53.004Z,5.64
2016-12-01T14:34:07.502Z,5.67
2016-12-01T14:35:21.434Z,5.73
2016-12-01T14:36:35.754Z,5.73
2016-12-01T14:37:49.957Z,5.72
2016-12-01T14:39:04.440Z,5.77
2016-12-01T14:40:18.824Z,5.76
2016-12-01T14:41:33.246Z,5.73
2016-12-01T14:42:47.428Z,5.84
2016-12-01T14:44:02.095Z,5.79
2016-12-01T14:45:16.656Z,5.7
2016-12-01T14:46:31.338Z,5.73
2016-12-01T14:47:45.331Z,5.74
2016-12-01T14:48:59.473Z,5.67
2016-12-01T14:50:14.036Z,5.64
2016-12-01T14:51:28.338Z,5.7
2016-12-01T14:52:42.441Z,5.67
2016-12-01T14:53:56.962Z,5.64
2016-12-01T14:55:11.331Z,5.59
2016-12-01T14:56:25.629Z,5.69
2016-12-01T14:57:39.902Z,5.67
2016-12-01T14:58:53.866Z,5.69
2016-12-01T15:00:07.876Z,5.72
2016-12-01T15:01:21.889Z,5.81
2016-12-01T15:02:36.343Z,5.77
2016-12-01T15:03:50.673Z,5.72
2016-12-01T15:05:04.787Z,5.55
2016-12-01T15:06:19.935Z,5.55
2016-12-01T15:07:33.950Z,5.54
2016-12-01T15:08:48.346Z,5.64
2016-12-01T15:10:03.042Z,5.67
2016-12-01T15:11:17.075Z,5.72
2016-12-01T15:12:31.195Z,5.69
2016-12-01T15:13:45.333Z,5.61
2016-12-01T15:15:00.173Z,5.7
2016-12-01T15:16:15.812Z,5.72
2016-12-01T15:17:30.195Z,5.56
2016-12-01T15:18:44.453Z,5.72
2016-12-01T15:19:58.970Z,5.61
2016-12-01T15:21:13.381Z,5.65
2016-12-01T15:22:28.101Z,5.7
2016-12-01T15:23:43.992Z,5.76
2016-12-01T15:24:58.355Z,5.73
2016-12-01T15:26:13.792Z,5.8
2016-12-01T15:27:27.725Z,5.72
2016-12-01T15:28:41.785Z,5.77
2016-12-01T15:29:56.087Z,5.87
2016-12-01T15:31:10.645Z,5.84
2016-12-01T15:32:25.347Z,5.73
2016-12-01T15:33:39.797Z,5.87
2016-12-01T15:34:53.810Z,5.84
2016-12-01T15:36:07.646Z,5.83
2016-12-01T15:37:21.472Z,5.87
2016-12-01T15:38:35.754Z,5.83
2016-12-01T15:39:50.684Z,5.76
2016-12-01T15:41:05.118Z,5.76
2016-12-01T15:42:19.911Z,5.74
2016-12-01T15:43:33.880Z,5.87
2016-12-01T15:44:47.777Z,5.9
2016-12-01T15:46:01.723Z,5.88
2016-12-01T15:47:16.510Z,5.92
2016-12-01T15:48:33.546Z,5.88
2016-12-01T15:49:47.504Z,5.87
2016-12-01T15:51:01.740Z,5.74
2016-12-01T15:52:15.785Z,5.77
2016-12-01T15:53:30.523Z,5.77
2016-12-01T15:54:44.799Z,5.76
2016-12-01T15:55:59.492Z,5.76
2016-12-01T15:57:13.599Z,5.77
2016-12-01T15:58:28.066Z,5.7
2016-12-01T15:59:42.830Z,5.72
2016-12-01T16:00:56.902Z,5.79
2016-12-01T16:02:11.020Z,5.76
2016-12-01T16:03:25.559Z,5.72
2016-12-01T16:04:40.862Z,5.7
2016-12-01T16:05:55.476Z,5.61
2016-12-01T16:07:29.418Z,5.74
2016-12-01T16:09:11.413Z,5.74
2016-12-01T16:10:38.466Z,5.72
2016-12-01T16:12:06.920Z,5.59
2016-12-01T16:13:23.024Z,5.51
2016-12-01T16:14:40.555Z,5.62
2016-12-01T16:15:54.867Z,5.61
2016-12-01T16:17:10.901Z,5.67
2016-12-01T16:18:25.996Z,5.62
2016-12-01T16:19:40.197Z,5.65
2016-12-01T16:20:54.415Z,5.59
2016-12-01T16:22:08.645Z,5.65
2016-12-01T16:23:22.785Z,5.62
2016-12-01T16:24:36.859Z,5.69
2016-12-01T16:25:50.979Z,5.58
2016-12-01T16:27:05.250Z,5.7
2016-12-01T16:28:21.603Z,5.69
2016-12-01T16:29:35.784Z,5.64
2016-12-01T16:30:49.838Z,5.62
2016-12-01T16:32:18.692Z,5.58
2016-12-01T16:33:32.983Z,5.7
2016-12-01T16:34:47.850Z,5.65
2016-12-01T16:36:16.984Z,5.55
2016-12-01T16:37:45.639Z,5.49
2016-12-01T16:38:59.854Z,5.56
2016-12-01T16:40:16.112Z,5.51
2016-12-01T16:41:45.368Z,5.56
2016-12-01T16:42:59.548Z,5.72
2016-12-01T16:44:13.793Z,5.69
2016-12-01T16:45:29.029Z,5.73
2016-12-01T16:46:58.285Z,5.52
2016-12-01T16:48:12.709Z,5.58
2016-12-01T16:49:26.740Z,5.58
2016-12-01T16:50:40.775Z,5.56
2016-12-01T16:51:55.688Z,5.49
2016-12-01T16:53:09.545Z,5.51
2016-12-01T16:54:23.284Z,5.55
2016-12-01T16:55:37.007Z,5.49